地図

経路データ

SID SEASON NUMBER BASIN SUBBASIN NAME ISO_TIME NATURE LAT LON WMO_WIND WMO_PRES WMO_AGENCY TRACK_TYPE DIST2LAND LANDFALL IFLAG USA_AGENCY USA_ATCF_ID USA_LAT USA_LON USA_RECORD USA_STATUS USA_WIND USA_PRES USA_SSHS USA_R34_NE USA_R34_SE USA_R34_SW USA_R34_NW USA_R50_NE USA_R50_SE USA_R50_SW USA_R50_NW USA_R64_NE USA_R64_SE USA_R64_SW USA_R64_NW USA_POCI USA_ROCI USA_RMW USA_EYE TOKYO_LAT TOKYO_LON TOKYO_GRADE TOKYO_WIND TOKYO_PRES TOKYO_R50_DIR TOKYO_R50_LONG TOKYO_R50_SHORT TOKYO_R30_DIR TOKYO_R30_LONG TOKYO_R30_SHORT TOKYO_LAND CMA_LAT CMA_LON CMA_CAT CMA_WIND CMA_PRES HKO_LAT HKO_LON HKO_CAT HKO_WIND HKO_PRES NEWDELHI_LAT NEWDELHI_LON NEWDELHI_GRADE NEWDELHI_WIND NEWDELHI_PRES NEWDELHI_CI NEWDELHI_DP NEWDELHI_POCI REUNION_LAT REUNION_LON REUNION_TYPE REUNION_WIND REUNION_PRES REUNION_TNUM REUNION_CI REUNION_RMW REUNION_R34_NE REUNION_R34_SE REUNION_R34_SW REUNION_R34_NW REUNION_R50_NE REUNION_R50_SE REUNION_R50_SW REUNION_R50_NW REUNION_R64_NE REUNION_R64_SE REUNION_R64_SW REUNION_R64_NW BOM_LAT BOM_LON BOM_TYPE BOM_WIND BOM_PRES BOM_TNUM BOM_CI BOM_RMW BOM_R34_NE BOM_R34_SE BOM_R34_SW BOM_R34_NW BOM_R50_NE BOM_R50_SE BOM_R50_SW BOM_R50_NW BOM_R64_NE BOM_R64_SE BOM_R64_SW BOM_R64_NW BOM_ROCI BOM_POCI BOM_EYE BOM_POS_METHOD BOM_PRES_METHOD NADI_LAT NADI_LON NADI_CAT NADI_WIND NADI_PRES WELLINGTON_LAT WELLINGTON_LON WELLINGTON_WIND WELLINGTON_PRES DS824_LAT DS824_LON DS824_STAGE DS824_WIND DS824_PRES TD9636_LAT TD9636_LON TD9636_STAGE TD9636_WIND TD9636_PRES TD9635_LAT TD9635_LON TD9635_WIND TD9635_PRES TD9635_ROCI NEUMANN_LAT NEUMANN_LON NEUMANN_CLASS NEUMANN_WIND NEUMANN_PRES MLC_LAT MLC_LON MLC_CLASS MLC_WIND MLC_PRES USA_GUST BOM_GUST BOM_GUST_PER REUNION_GUST REUNION_GUST_PER USA_SEAHGT USA_SEARAD_NE USA_SEARAD_SE USA_SEARAD_SW USA_SEARAD_NW STORM_SPEED STORM_DIR
1992338S04173 1993 128 SP MM JONI 1992-12-03 06:00:00 TS -4.00000 173.000 main 1388 1388 O___________O_ jtwc_sh SH031993 -4.00000 173.000 15 -1 -4.00000 173.000 TC 15 7 97
1992338S04173 1993 128 SP MM JONI 1992-12-03 09:00:00 TS -4.04253 173.350 main 1411 1401 P___________P_ SH031993 -4.04253 173.350 17 -1 -4.04253 173.350 TC 17 7 98
1992338S04173 1993 128 SP MM JONI 1992-12-03 12:00:00 TS -4.10000 173.700 main 1418 1418 O___________O_ jtwc_sh SH031993 -4.10000 173.700 20 -1 -4.10000 173.700 TC 20 7 102
1992338S04173 1993 128 SP MM JONI 1992-12-03 15:00:00 TS -4.18498 174.050 main 1432 1432 P___________P_ SH031993 -4.18498 174.050 20 -1 -4.18498 174.050 TC 20 7 106
1992338S04173 1993 128 SP MM JONI 1992-12-03 18:00:00 TS -4.30000 174.400 main 1440 1432 O___________O_ jtwc_sh SH031993 -4.30000 174.400 20 -1 -4.30000 174.400 TC 20 7 108
1992338S04173 1993 128 SP MM JONI 1992-12-03 21:00:00 TS -4.41247 174.743 main 1432 1395 P___________P_ SH031993 -4.41247 174.743 20 -1 -4.41247 174.743 TC 20 8 113
1992338S04173 1993 128 SP MM JONI 1992-12-04 00:00:00 TS -4.60000 175.100 main 1395 1349 O___________O_ jtwc_sh SH031993 -4.60000 175.100 20 -1 -4.60000 175.100 TC 20 9 123
1992338S04173 1993 128 SP MM JONI 1992-12-04 03:00:00 TS -4.90500 175.493 main 1349 1292 P___________P_ SH031993 -4.90500 175.493 20 -1 -4.90500 175.493 TC 20 11 131
1992338S04173 1993 128 SP MM JONI 1992-12-04 06:00:00 TS -5.30000 175.900 main 1292 1236 O___________O_ jtwc_sh SH031993 -5.30000 175.900 20 -1 -5.30000 175.900 TC 20 11 136
1992338S04173 1993 128 SP MM JONI 1992-12-04 09:00:00 TS -5.72744 176.285 main 1236 1169 P___________P_ SH031993 -5.72744 176.285 20 -1 -5.72744 176.285 TC 20 12 139
1992338S04173 1993 128 SP MM JONI 1992-12-04 12:00:00 TS -6.20000 176.700 main 1169 1100 O___________O_ jtwc_sh SH031993 -6.20000 176.700 20 -1 -6.20000 176.700 TC 20 13 137
1992338S04173 1993 128 SP MM JONI 1992-12-04 15:00:00 TS -6.70755 177.207 main 1100 1033 P___________P_ SH031993 -6.70755 177.207 20 -1 -6.70755 177.207 TC 20 14 135
1992338S04173 1993 128 SP MM JONI 1992-12-04 18:00:00 TS -7.20000 177.700 main 1033 980 O___________O_ jtwc_sh SH031993 -7.20000 177.700 20 -1 -7.20000 177.700 TC 20 13 136
1992338S04173 1993 128 SP MM JONI 1992-12-04 21:00:00 TS -7.61492 178.080 main 980 932 P___________P_ SH031993 -7.61492 178.080 22 -1 -7.61492 178.080 TC 22 10 142
1992338S04173 1993 128 SP MM JONI 1992-12-05 00:00:00 TS -8.00000 178.320 nadi main 932 895 O_______O___O_ jtwc_sh SH031993 -8.00000 178.400 25 -1 -8.00000 178.000 -8.00000 178.000 25 999 -8.00000 178.400 TC 25 9 148
1992338S04173 1993 128 SP MM JONI 1992-12-05 03:00:00 TS -8.33250 178.534 main 895 859 P_______P___P_ SH031993 -8.42249 178.722 25 -1 -8.15253 178.157 -8.15253 178.157 25 999 -8.42249 178.722 TC 25 7 147
1992338S04173 1993 128 SP MM JONI 1992-12-05 06:00:00 TS -8.58571 178.700 nadi main 859 835 O_______O___O_ jtwc_sh SH031993 -8.80000 179.000 25 -1 -8.30000 178.300 -8.30000 178.300 25 999 -8.80000 179.000 TC 25 5 147
1992338S04173 1993 128 SP MM JONI 1992-12-05 09:00:00 TS -8.76496 178.821 main 835 822 P_______P___P_ SH031993 -9.08746 179.215 27 -1 -8.44246 178.428 -8.44246 178.428 27 998 -9.08746 179.215 TC 27 5 141
1992338S04173 1993 128 SP MM JONI 1992-12-05 12:00:00 TS -8.95000 179.000 nadi main 822 797 O_______O___O_ jtwc_sh SH031993 -9.30000 179.400 30 -1 -8.60000 178.600 -8.60000 178.600 30 997 -9.30000 179.400 TC 30 6 130
1992338S04173 1993 128 SP MM JONI 1992-12-05 15:00:00 TS -9.13254 179.257 main 796 773 P_______P___P_ SH031993 -9.47251 179.615 32 -1 -8.79257 178.900 -8.79257 178.900 30 997 -9.47251 179.615 TC 32 6 125
1992338S04173 1993 128 SP MM JONI 1992-12-05 18:00:00 TS -9.30000 179.500 nadi main 773 761 O_______O___O_ jtwc_sh SH031993 -9.60000 179.800 35 0 -9.00000 179.200 -9.00000 179.200 30 997 -9.60000 179.800 TC 35 5 129
1992338S04173 1993 128 SP MM JONI 1992-12-05 21:00:00 TS -9.45372 179.655 main 750 739 P_______P___P_ SH031993 -9.69999 179.930 37 0 -9.20746 179.380 -9.20746 179.380 30 997 -9.69999 179.930 TC 37 4 141
1992338S04173 1993 128 SP MM JONI 1992-12-06 00:00:00 TS -9.60000 179.750 nadi main 739 727 O_______O___O_ jtwc_sh SH031993 -9.80000 180.000 40 0 -9.40000 179.500 -9.40000 179.500 30 997 -9.80000 180.000 TC 40 3 151
1992338S04173 1993 128 SP MM JONI 1992-12-06 03:00:00 TS -9.73499 179.811 main 727 705 P_______P___P_ SH031993 -9.92749 -179.978 42 0 -9.54248 179.600 -9.54248 179.600 30 997 -9.92749 -179.978 TC 42 3 163
1992338S04173 1993 128 SP MM JONI 1992-12-06 06:00:00 TS -9.90000 179.850 nadi main 705 683 O_______O___O_ jtwc_sh SH031993 -10.1000 180.000 45 0 -9.70000 179.700 -9.70000 179.700 30 997 -10.1000 180.000 TC 45 4 167
1992338S04173 1993 128 SP MM JONI 1992-12-06 09:00:00 TS -10.1425 179.911 main 683 649 P_______P___P_ SH031993 -10.3350 179.958 47 0 -9.95002 179.865 -9.95002 179.865 32 996 -10.3350 179.958 TC 47 5 169
1992338S04173 1993 128 SP MM JONI 1992-12-06 12:00:00 TS -10.4000 179.950 nadi main 649 627 O_______O___O_ jtwc_sh SH031993 -10.6000 179.900 50 0 -10.2000 180.000 -10.2000 180.000 35 995 -10.6000 179.900 TC 50 4 175
1992338S04173 1993 128 SP MM JONI 1992-12-06 15:00:00 TS -10.5850 179.955 main 627 604 P_______P___P_ SH031993 -10.8425 179.865 52 0 -10.3275 -179.955 -10.3275 -179.955 37 992 -10.8425 179.865 TC 52 4 188
1992338S04173 1993 128 SP MM JONI 1992-12-06 18:00:00 TS -10.8000 179.900 nadi main 604 571 O_______O___O_ jtwc_sh SH031993 -11.1000 179.800 55 0 -10.5000 180.000 -10.5000 180.000 40 990 -11.1000 179.800 TC 55 6 198
1992338S04173 1993 128 SP MM JONI 1992-12-06 21:00:00 TS -11.1350 179.773 main 571 526 P_______P___P_ SH031993 -11.3925 179.680 55 0 -10.8775 179.865 -10.8775 179.865 40 990 -11.3925 179.680 TC 55 8 203
1992338S04173 1993 128 SP MM JONI 1992-12-07 00:00:00 TS -11.5000 179.600 nadi main 526 493 O_______O___O_ jtwc_sh SH031993 -11.7000 179.500 55 0 -11.3000 179.700 -11.3000 179.700 40 990 -11.7000 179.500 TC 55 7 205
1992338S04173 1993 128 SP MM JONI 1992-12-07 03:00:00 TS -11.8075 179.447 main 494 462 P_______P___P_ SH031993 -12.0150 179.265 57 0 -11.5999 179.630 -11.5999 179.630 42 988 -12.0150 179.265 TC 57 7 210
1992338S04173 1993 128 SP MM JONI 1992-12-07 06:00:00 TS -12.1000 179.250 nadi main 462 434 O_______O___O_ jtwc_sh SH031993 -12.3000 179.000 60 0 -11.9000 179.500 -11.9000 179.500 45 987 -12.3000 179.000 TC 60 8 219
1992338S04173 1993 128 SP MM JONI 1992-12-07 09:00:00 TS -12.4226 178.946 main 436 409 P_______P___P_ SH031993 -12.5225 178.735 62 0 -12.3227 179.158 -12.3227 179.158 47 986 -12.5225 178.735 TC 62 8 224
1992338S04173 1993 128 SP MM JONI 1992-12-07 12:00:00 TS -12.7000 178.650 nadi main 409 395 O_______O___O_ jtwc_sh SH031993 -12.7000 178.500 65 1 -12.7000 178.800 -12.7000 178.800 50 985 -12.7000 178.500 TC 65 6 225
1992338S04173 1993 128 SP MM JONI 1992-12-07 15:00:00 TS -12.8762 178.474 main 395 387 P_______P___P_ SH031993 -12.8650 178.335 70 1 -12.8874 178.612 -12.8874 178.612 55 980 -12.8650 178.335 TC 70 4 224
1992338S04173 1993 128 SP MM JONI 1992-12-07 18:00:00 TS -13.0000 178.350 nadi main 387 380 O_______O___O_ jtwc_sh SH031993 -13.0000 178.200 75 1 -13.0000 178.500 -13.0000 178.500 60 975 -13.0000 178.200 TC 75 4 224
1992338S04173 1993 128 SP MM JONI 1992-12-07 21:00:00 TS -13.1287 178.225 main 384 374 P_______P___P_ SH031993 -13.1000 178.050 80 1 -13.1575 178.400 -13.1575 178.400 65 970 -13.1000 178.050 TC 80 4 224
1992338S04173 1993 128 SP MM JONI 1992-12-08 00:00:00 TS -13.2500 178.100 nadi main 378 362 O_______O___O_ jtwc_sh SH031993 -13.2000 177.900 85 2 -13.3000 178.300 -13.3000 178.300 70 965 -13.2000 177.900 TC 85 4 228
1992338S04173 1993 128 SP MM JONI 1992-12-08 03:00:00 TS -13.3675 177.954 main 362 356 P_______P___P_ SH031993 -13.3350 177.750 87 2 -13.4000 178.157 -13.4000 178.157 72 962 -13.3350 177.750 TC 87 4 229
1992338S04173 1993 128 SP MM JONI 1992-12-08 06:00:00 TS -13.5000 177.800 nadi main 359 343 O_______O___O_ jtwc_sh SH031993 -13.5000 177.600 90 2 -13.5000 178.000 -13.5000 178.000 75 960 -13.5000 177.600 TC 90 4 225
1992338S04173 1993 128 SP MM JONI 1992-12-08 09:00:00 TS -13.6600 177.650 main 343 337 P_______P___P_ SH031993 -13.6925 177.450 92 2 -13.6275 177.850 -13.6275 177.850 75 960 -13.6925 177.450 TC 92 5 220
1992338S04173 1993 128 SP MM JONI 1992-12-08 12:00:00 TS -13.8500 177.500 nadi main 341 314 O_______O___O_ jtwc_sh SH031993 -13.9000 177.300 95 2 -13.8000 177.700 -13.8000 177.700 75 960 -13.9000 177.300 TC 95 5 215
1992338S04173 1993 128 SP MM JONI 1992-12-08 15:00:00 TS -14.0675 177.350 main 318 302 P_______P___P_ SH031993 -14.0925 177.142 97 3 -14.0425 177.557 -14.0425 177.557 77 957 -14.0925 177.142 TC 97 5 213
1992338S04173 1993 128 SP MM JONI 1992-12-08 18:00:00 TS -14.3000 177.200 nadi main 302 288 O_______O___O_ jtwc_sh SH031993 -14.3000 177.000 100 3 -14.3000 177.400 -14.3000 177.400 80 955 -14.3000 177.000 TC 100 5 214
1992338S04173 1993 128 SP MM JONI 1992-12-08 21:00:00 TS -14.5213 177.035 main 294 281 P_______P___P_ SH031993 -14.5425 176.885 100 3 -14.5000 177.185 -14.5000 177.185 80 955 -14.5425 176.885 TC 100 5 213
1992338S04173 1993 128 SP MM JONI 1992-12-09 00:00:00 TS -14.7500 176.900 nadi main 281 263 O_______O___O_ jtwc_sh SH031993 -14.8000 176.800 100 3 -14.7000 177.000 -14.7000 177.000 80 955 -14.8000 176.800 TC 100 5 202
1992338S04173 1993 128 SP MM JONI 1992-12-09 03:00:00 TS -15.0037 176.835 main 263 247 P_______P___P_ SH031993 -15.0500 176.742 100 3 -14.9575 176.927 -14.9575 176.927 80 955 -15.0500 176.742 TC 100 5 191
1992338S04173 1993 128 SP MM JONI 1992-12-09 06:00:00 TS -15.2500 176.800 nadi main 247 232 O_______O___O_ jtwc_sh SH031993 -15.3000 176.700 100 3 -15.2000 176.900 -15.2000 176.900 80 955 -15.3000 176.700 TC 100 5 191
1992338S04173 1993 128 SP MM JONI 1992-12-09 09:00:00 TS -15.4463 176.743 main 241 228 P_______P___P_ SH031993 -15.5500 176.643 102 3 -15.3425 176.842 -15.3425 176.842 80 955 -15.5500 176.643 TC 102 4 193
1992338S04173 1993 128 SP MM JONI 1992-12-09 12:00:00 TS -15.6500 176.700 nadi main 228 198 O_______O___O_ jtwc_sh SH031993 -15.8000 176.600 105 3 -15.5000 176.800 -15.5000 176.800 80 955 -15.8000 176.600 TC 105 5 184
1992338S04173 1993 128 SP MM JONI 1992-12-09 15:00:00 TS -15.9100 176.692 main 198 168 P_______P___P_ SH031993 -16.0500 176.592 105 3 -15.7700 176.792 -15.7700 176.792 82 950 -16.0500 176.592 TC 105 6 0
1992338S04173 1993 128 SP MM JONI 1992-12-09 18:00:00 TS -16.2000 176.700 nadi main 168 140 O_______O___O_ jtwc_sh SH031993 -16.3000 176.600 105 3 -16.1000 176.800 -16.1000 176.800 85 945 -16.3000 176.600 TC 105 6 178
1992338S04173 1993 128 SP MM JONI 1992-12-09 21:00:00 TS -16.4925 176.693 main 140 115 P_______P___P_ SH031993 -16.5425 176.585 107 3 -16.4425 176.800 -16.4425 176.800 87 942 -16.5425 176.585 TC 97 6 179
1992338S04173 1993 128 SP MM JONI 1992-12-10 00:00:00 TS -16.8000 176.700 nadi main 115 93 O_______O___O_ jtwc_sh SH031993 -16.8000 176.600 110 3 -16.8000 176.800 -16.8000 176.800 90 940 -16.8000 176.600 TC 90 957 6 176
1992338S04173 1993 128 SP MM JONI 1992-12-10 03:00:00 TS -17.1212 176.728 main 93 67 P_______P___P_ SH031993 -17.1000 176.677 110 3 -17.1425 176.778 -17.1425 176.778 90 940 -17.1000 176.677 TC 100 7 171
1992338S04173 1993 128 SP MM JONI 1992-12-10 06:00:00 TS -17.4500 176.800 nadi main 67 38 O_______O___O_ jtwc_sh SH031993 -17.4000 176.800 110 3 -17.5000 176.800 -17.5000 176.800 90 940 -17.4000 176.800 TC 110 7 164
1992338S04173 1993 128 SP MM JONI 1992-12-10 09:00:00 TS -17.7937 176.927 main 38 10 P_______P___P_ SH031993 -17.6575 176.935 107 3 -17.9300 176.920 -17.9300 176.920 90 940 -17.6575 176.935 TC 107 7 156
1992338S04173 1993 128 SP MM JONI 1992-12-10 12:00:00 TS -18.1000 177.100 nadi main 15 15 O_______O___O_ jtwc_sh SH031993 -17.9000 177.100 105 3 -18.3000 177.100 -18.3000 177.100 90 940 -17.9000 177.100 TC 105 6 146
1992338S04173 1993 128 SP MM JONI 1992-12-10 15:00:00 TS -18.3150 177.293 main 22 22 P_______P___P_ SH031993 -18.1500 177.293 100 3 -18.4800 177.293 -18.4800 177.293 87 942 -18.1500 177.293 TC 100 6 137
1992338S04173 1993 128 SP MM JONI 1992-12-10 18:00:00 TS -18.5000 177.500 nadi main 35 35 O_______O___O_ jtwc_sh SH031993 -18.4000 177.500 95 2 -18.6000 177.500 -18.6000 177.500 85 945 -18.4000 177.500 TC 95 5 137
1992338S04173 1993 128 SP MM JONI 1992-12-10 21:00:00 TS -18.7137 177.681 main 49 49 P_______P___P_ SH031993 -18.6500 177.693 90 2 -18.7774 177.670 -18.7774 177.670 82 950 -18.6500 177.693 TC 90 6 140
1992338S04173 1993 128 SP MM JONI 1992-12-11 00:00:00 TS -18.9500 177.900 nadi main 67 67 O_______O___O_ jtwc_sh SH031993 -18.9000 177.900 85 2 -19.0000 177.900 -19.0000 177.900 80 955 -18.9000 177.900 TC 85 7 136
1992338S04173 1993 128 SP MM JONI 1992-12-11 03:00:00 TS -19.2288 178.206 main 100 100 P_______P___P_ SH031993 -19.1575 178.135 82 1 -19.3001 178.277 -19.3001 178.277 77 957 -19.1575 178.135 TC 82 8 132
1992338S04173 1993 128 SP MM JONI 1992-12-11 06:00:00 TS -19.5000 178.550 nadi main 140 137 O_______O___O_ jtwc_sh SH031993 -19.4000 178.400 80 1 -19.6000 178.700 -19.6000 178.700 75 960 -19.4000 178.400 TC 80 8 129
1992338S04173 1993 128 SP MM JONI 1992-12-11 09:00:00 TS -19.7110 178.845 main 168 168 P_______P___P_ SH031993 -19.6149 178.678 77 1 -19.8070 179.013 -19.8070 179.013 70 965 -19.6149 178.678 TC 77 7 123
1992338S04173 1993 128 SP MM JONI 1992-12-11 12:00:00 TS -19.9000 179.200 nadi main 207 207 O_______O___O_ jtwc_sh SH031993 -19.8000 179.000 75 1 -20.0000 179.400 -20.0000 179.400 65 970 -19.8000 179.000 TC 75 9 114
1992338S04173 1993 128 SP MM JONI 1992-12-11 15:00:00 TS -20.0891 179.729 main 247 247 P_______P___P_ SH031993 -19.9500 179.385 72 1 -20.2283 -179.928 -20.2283 -179.928 62 972 -19.9500 179.385 TC 72 11 112
1992338S04173 1993 128 SP MM JONI 1992-12-11 18:00:00 TS -20.3000 180.250 nadi main 297 292 O_______O___O_ jtwc_sh SH031993 -20.1000 179.800 70 1 -20.5000 -179.300 -20.5000 -179.300 60 975 -20.1000 179.800 TC 70 9 120
1992338S04173 1993 128 SP MM JONI 1992-12-11 21:00:00 TS -20.5484 180.564 main 334 334 P_______P___P_ SH031993 -20.2623 -179.815 67 1 -20.8344 -179.062 -20.8344 -179.062 57 977 -20.2624 -179.807 TC 67 8 134
1992338S04173 1993 128 SP MM JONI 1992-12-12 00:00:00 TS -20.8500 180.850 nadi main 380 388 O_______O___O_ jtwc_sh SH031993 -20.5000 -179.400 65 1 -21.2000 -178.900 -21.2000 -178.900 55 980 -20.5000 -179.400 TC 65 9 134
1992338S04173 1993 128 SP MM JONI 1992-12-12 03:00:00 TS -21.1837 181.260 main 440 440 P_______P___P_ SH031993 -20.8475 -178.907 62 0 -21.5200 -178.545 -21.5200 -178.545 52 982 -20.8474 -178.965 TC 62 11 133
1992338S04173 1993 128 SP MM JONI 1992-12-12 06:00:00 TS -21.6000 181.725 nadi main 501 501 O_______O___O_ jtwc_sh SH031993 -21.3000 -178.400 60 0 -21.9000 -178.100 -21.9000 -178.100 50 985 -21.3000 -178.500 TC 60 13 136
1992338S04173 1993 128 SP MM JONI 1992-12-12 09:00:00 TS -22.0825 182.207 main 577 577 P_______P___P_ SH031993 -21.7821 -177.964 57 0 -22.3826 -177.600 -22.3826 -177.600 50 985 -21.7824 -178.007 TC 57 14 140
1992338S04173 1993 128 SP MM JONI 1992-12-12 12:00:00 TS -22.6800 182.687 nadi main 662 662 O_______O___O_ jtwc_sh SH031993 -22.4000 -177.500 55 0 -23.0000 -177.100 -23.0000 -177.100 50 985 -22.4000 -177.500 TC 55 15 148
1992338S04173 1993 128 SP MM JONI 1992-12-12 15:00:00 TS -23.3782 183.087 main 748 748 P_______P___P_ SH031993 -23.1226 -176.929 50 0 -23.7600 -176.676 -23.7016 -176.757 50 985 -23.1194 -177.173 TC 50 19 152
1992338S04173 1993 128 SP MM JONI 1992-12-12 18:00:00 TS -24.3273 183.645 nadi main 859 859 O_______O___O_ jtwc_sh SH031993 -24.1000 -176.300 45 0 -24.6000 -176.300 -24.6000 -176.300 50 985 -24.1000 -176.500 TC 45 26 148
1992338S04173 1993 128 SP MM JONI 1992-12-12 21:00:00 TS -25.5524 184.578 main 1035 1035 P_______P___P_ SH031993 -25.4054 -175.656 42 0 -25.6955 -175.489 50 985 -25.4132 -175.055 TC 42 32 146
1992338S04173 1993 128 SP MM JONI 1992-12-13 00:00:00 TS -26.9667 185.650 50 985 wellington main 1226 1226 O_______O___O_ jtwc_sh SH031993 -26.9000 -175.000 40 0 -27.0000 -174.500 50 985 -26.9000 -173.100 TC 40 33 149
1992338S04173 1993 128 SP MM JONI 1992-12-13 03:00:00 NR -28.3792 186.453 main 1269 1188 ________P_____ SH031993 -1 -28.3792 -173.547 47 986 TC 35 152
1992338S04173 1993 128 SP MM JONI 1992-12-13 06:00:00 NR -30.0000 187.500 45 987 wellington main 1186 1122 ________O_____ -1 -30.0000 -172.500 45 987 41 151
1992338S04173 1993 128 SP MM JONI 1992-12-13 09:00:00 NR -31.9626 188.712 main 1116 1099 ________P_____ -1 -31.9626 -171.288 42 988 45 152
1992338S04173 1993 128 SP MM JONI 1992-12-13 12:00:00 NR -34.0000 190.000 40 990 wellington main 1103 1102 ________O_____ -1 -34.0000 -170.000 40 990 44 151
1992338S04173 1993 128 SP MM JONI 1992-12-13 15:00:00 NR -35.7860 191.257 main 1147 1144 ________P_____ -1 -35.7860 -168.743 40 990 41 150
1992338S04173 1993 128 SP MM JONI 1992-12-13 18:00:00 NR -37.5000 192.500 40 990 wellington main 1220 1220 ________O_____ -1 -37.5000 -167.500 40 990 40 150
1992338S04173 1993 128 SP MM JONI 1992-12-13 21:00:00 NR -39.2114 193.758 main 1328 1328 ________P_____ -1 -39.2114 -166.242 37 992 40 151
1992338S04173 1993 128 SP MM JONI 1992-12-14 00:00:00 NR -41.0000 195.000 35 995 wellington main 1447 1447 ________O_____ -1 -41.0000 -165.000 35 995 42 153
1992338S04173 1993 128 SP MM JONI 1992-12-14 03:00:00 NR -42.9525 196.231 main 1578 1578 ________P_____ -1 -42.9525 -163.769 32 996 44 155
1992338S04173 1993 128 SP MM JONI 1992-12-14 06:00:00 NR -45.0000 197.500 30 997 wellington main 1725 ________O_____ -1 -45.0000 -162.500 30 997 45 156

デジタル台風データ・検索

IBTrACS Databaseについて

本データベースは、米国NOAAが公開する1842年以降の世界の熱帯低気圧のベストトラックデータアーカイブInternational Best Track Archive for Climate Stewardship (IBTrACS)を、ウェブで閲覧しやすい形式に変換したものです。

最終更新日:2021-10-08